Time;durP1;ratioP1;P1;durP2;ratioP2;P2;SDS_P1;SDS_P2;PMS_P1;PMS_P2;Temp;Humidity;BMP_temperature;BMP_pressure;BME280_temperature;BME280_humidity;BME280_pressure;Samples;Min_cycle;Max_cycle;Signal;HPM_P1;HPM_P2
2022/10/10 00:01:29;;;;;;;;;16.50;16.50;;;;;15.19;59.94;100978.50;5059261;28;45358;-61
2022/10/10 00:03:55;;;;;;;;;14.50;14.50;;;;;15.20;59.92;100979.34;5059394;28;45292;-61
2022/10/10 00:06:21;;;;;;;;;12.50;12.00;;;;;15.21;60.02;100982.94;5049341;28;47674;-61
2022/10/10 00:08:47;;;;;;;;;15.00;13.00;;;;;15.21;59.81;100978.44;5052384;28;45652;-61
2022/10/10 00:11:14;;;;;;;;;13.75;13.75;;;;;15.18;60.00;100979.47;5028520;28;45349;-62
2022/10/10 00:13:40;;;;;;;;;14.50;14.50;;;;;15.21;59.96;100977.56;5046655;28;45565;-61
2022/10/10 00:16:05;;;;;;;;;16.75;14.50;;;;;15.19;59.86;100975.81;5058966;28;45927;-61
2022/10/10 00:18:32;;;;;;;;;12.75;12.00;;;;;15.17;60.00;100971.47;5059040;28;45329;-61
2022/10/10 00:20:57;;;;;;;;;18.75;15.00;;;;;15.21;59.80;100967.66;5058177;28;45405;-61
2022/10/10 00:23:23;;;;;;;;;15.25;12.75;;;;;15.24;59.65;100980.13;5058910;28;45422;-61
2022/10/10 00:25:49;;;;;;;;;13.75;13.75;;;;;15.24;59.94;100969.34;5058649;28;45410;-61
2022/10/10 00:28:14;;;;;;;;;17.00;15.00;;;;;15.23;59.60;100968.47;5057765;28;45224;-61
2022/10/10 00:30:40;;;;;;;;;15.25;13.25;;;;;15.24;59.75;100964.84;5057618;28;45247;-61
2022/10/10 00:33:05;;;;;;;;;16.00;13.25;;;;;15.25;59.75;100965.69;5058914;28;45252;-61
2022/10/10 00:35:31;;;;;;;;;13.25;12.00;;;;;15.27;59.75;100970.06;5056311;28;46366;-61
2022/10/10 00:37:56;;;;;;;;;14.75;14.50;;;;;15.19;60.21;100956.97;5054696;28;45307;-62
2022/10/10 00:40:22;;;;;;;;;15.50;14.50;;;;;15.27;59.92;100963.81;5058518;28;45375;-61
2022/10/10 00:42:48;;;;;;;;;14.75;13.25;;;;;15.28;59.99;100965.56;5058021;28;45506;-61
2022/10/10 00:45:32;;;;;;;;;17.75;14.00;;;;;15.30;59.86;100974.41;5057119;28;45371;-61
2022/10/10 00:48:00;;;;;;;;;15.75;15.50;;;;;15.30;59.86;100971.72;5058436;28;45635;-61
2022/10/10 00:50:27;;;;;;;;;16.50;15.25;;;;;15.25;59.93;100968.38;5058862;28;45310;-61
2022/10/10 00:52:53;;;;;;;;;14.00;14.00;;;;;15.28;60.04;100969.09;5058320;28;45379;-61
2022/10/10 00:55:18;;;;;;;;;15.00;14.75;;;;;15.29;59.92;100967.31;5058393;28;46291;-61
2022/10/10 00:57:44;;;;;;;;;23.50;18.50;;;;;15.24;59.94;100956.78;5057407;28;45407;-61
2022/10/10 01:00:10;;;;;;;;;17.50;15.00;;;;;15.25;60.17;100946.88;5060914;28;45330;-61
2022/10/10 01:02:36;;;;;;;;;13.00;13.00;;;;;15.28;60.07;100965.56;5061901;28;45336;-61
2022/10/10 01:05:02;;;;;;;;;17.50;16.75;;;;;15.26;60.29;100962.06;5061703;28;46539;-61
2022/10/10 01:07:30;;;;;;;;;16.00;13.75;;;;;15.27;60.11;100966.50;5061769;28;45328;-61
2022/10/10 01:10:01;;;;;;;;;15.25;13.50;;;;;15.26;60.25;100960.25;5061901;28;45328;-61
2022/10/10 01:12:42;;;;;;;;;13.75;12.00;;;;;15.25;60.21;100963.91;5061259;28;45605;-61
2022/10/10 01:15:35;;;;;;;;;18.25;14.50;;;;;15.22;60.05;100964.06;5060997;28;46784;-62
2022/10/10 01:18:09;;;;;;;;;17.25;17.25;;;;;15.23;60.25;100959.53;5051162;28;45336;-61
2022/10/10 01:20:59;;;;;;;;;19.25;18.00;;;;;15.19;59.94;100956.13;5058278;28;45430;-61
2022/10/10 01:23:34;;;;;;;;;21.50;21.50;;;;;15.19;60.17;100956.13;5061658;28;45783;-61
2022/10/10 01:26:49;;;;;;;;;19.75;17.00;;;;;15.17;60.00;100958.88;5061601;28;45466;-61
2022/10/10 01:29:37;;;;;;;;;17.25;14.50;;;;;15.06;60.20;100933.47;5032694;28;45373;-61
2022/10/10 01:32:14;;;;;;;;;19.25;16.75;;;;;15.18;60.28;100960.63;5048691;28;45702;-61
2022/10/10 01:34:53;;;;;;;;;19.00;17.25;;;;;15.11;60.20;100947.56;5059803;28;45423;-61
2022/10/10 01:37:24;;;;;;;;;19.25;17.25;;;;;15.12;60.15;100952.88;5059022;28;45417;-61
2022/10/10 01:40:16;;;;;;;;;20.50;18.00;;;;;15.13;60.38;100948.34;5060852;28;45475;-61
2022/10/10 01:42:52;;;;;;;;;15.50;13.50;;;;;15.02;60.12;100932.75;5060789;28;45272;-61
2022/10/10 01:45:18;;;;;;;;;16.25;15.25;;;;;15.06;60.29;100941.53;5043866;28;45350;-61
2022/10/10 01:47:44;;;;;;;;;18.25;16.25;;;;;15.09;60.34;100946.75;5061053;28;46210;-61
2022/10/10 01:50:17;;;;;;;;;17.25;14.75;;;;;15.02;60.45;100935.44;5061296;28;45316;-61
2022/10/10 01:52:56;;;;;;;;;15.00;15.00;;;;;15.10;60.44;100946.69;5061279;28;45630;-61
2022/10/10 01:55:45;;;;;;;;;15.25;14.25;;;;;15.10;60.65;100951.19;5060963;28;45407;-61
2022/10/10 01:58:42;;;;;;;;;15.75;14.50;;;;;15.08;60.57;100940.50;5060201;28;46296;-61
2022/10/10 02:01:19;;;;;;;;;15.00;13.50;;;;;15.08;60.42;100947.69;5061089;28;45327;-61
2022/10/10 02:03:52;;;;;;;;;15.25;15.25;;;;;15.04;60.32;100938.91;5060515;28;45543;-61
2022/10/10 02:06:27;;;;;;;;;17.00;15.00;;;;;15.08;60.52;100942.31;5060453;28;45490;-61
2022/10/10 02:09:00;;;;;;;;;14.00;14.00;;;;;15.08;60.53;100945.00;5060749;28;45932;-61
2022/10/10 02:11:29;;;;;;;;;14.75;14.75;;;;;15.07;60.57;100940.56;5060216;28;45552;-61
2022/10/10 02:14:01;;;;;;;;;14.75;14.75;;;;;15.06;60.77;100941.53;5060806;28;45830;-61
2022/10/10 02:16:31;;;;;;;;;12.25;12.25;;;;;15.00;60.65;100946.25;5061005;28;45536;-61
2022/10/10 02:18:58;;;;;;;;;14.00;13.00;;;;;14.97;60.80;100937.47;5060791;28;46483;-61
2022/10/10 02:21:25;;;;;;;;;15.75;15.50;;;;;14.99;60.63;100946.31;5042599;28;45381;-61
2022/10/10 02:23:54;;;;;;;;;14.50;13.75;;;;;14.93;60.98;100942.09;5060663;28;45374;-61
2022/10/10 02:26:22;;;;;;;;;12.00;11.50;;;;;14.92;60.84;100947.56;5059812;28;45538;-61
2022/10/10 02:28:59;;;;;;;;;13.50;13.25;;;;;14.91;60.80;100949.38;5041779;28;48174;-61
2022/10/10 02:31:43;;;;;;;;;11.50;10.75;;;;;14.92;60.96;100937.69;5060681;28;45377;-61
2022/10/10 02:34:13;;;;;;;;;13.25;10.75;;;;;14.93;60.79;100951.97;5056979;28;45327;-61
2022/10/10 02:36:41;;;;;;;;;10.50;10.50;;;;;14.92;61.02;100943.06;5056461;28;45399;-61
2022/10/10 02:39:11;;;;;;;;;13.25;12.00;;;;;14.91;60.92;100938.63;5060019;28;46554;-61
2022/10/10 02:41:37;;;;;;;;;11.50;11.00;;;;;14.92;60.96;100944.88;5054040;28;45314;-61
2022/10/10 02:44:02;;;;;;;;;12.25;12.25;;;;;14.88;61.28;100938.75;5059822;28;45426;-61
2022/10/10 02:46:28;;;;;;;;;12.75;12.75;;;;;14.89;60.89;100940.50;5060114;28;45556;-61
2022/10/10 02:48:53;;;;;;;;;14.00;11.00;;;;;14.92;61.26;100944.88;5060347;28;46061;-61
2022/10/10 02:51:18;;;;;;;;;9.25;8.75;;;;;14.87;61.24;100936.13;5060246;28;45373;-61
2022/10/10 02:53:44;;;;;;;;;11.50;9.75;;;;;14.90;61.17;100947.63;5059393;28;45303;-61
2022/10/10 02:56:10;;;;;;;;;10.50;10.50;;;;;14.91;61.15;100945.81;5060133;28;45644;-61
2022/10/10 02:58:36;;;;;;;;;11.00;10.25;;;;;14.88;61.50;100948.66;5060388;28;45644;-61
2022/10/10 03:01:02;;;;;;;;;10.25;10.25;;;;;14.86;61.32;100947.84;5060056;28;45488;-62
2022/10/10 03:03:27;;;;;;;;;14.50;12.00;;;;;14.88;61.15;100954.03;5060545;28;45324;-61
2022/10/10 03:05:52;;;;;;;;;14.25;13.00;;;;;14.85;61.51;100948.78;5063756;28;46254;-61
2022/10/10 03:08:18;;;;;;;;;13.25;12.25;;;;;14.82;61.41;100939.06;5059164;28;46229;-61
2022/10/10 03:10:58;;;;;;;;;16.00;15.00;;;;;14.85;61.69;100951.47;5058385;28;45385;-61
2022/10/10 03:13:24;;;;;;;;;16.25;16.25;;;;;14.78;61.79;100943.72;5060117;28;45513;-61
2022/10/10 03:15:49;;;;;;;;;16.25;14.00;;;;;14.82;61.65;100947.13;5059812;28;45460;-61
2022/10/10 03:18:14;;;;;;;;;19.75;15.75;;;;;14.82;61.51;100941.75;5059788;28;47192;-61
2022/10/10 03:20:40;;;;;;;;;23.50;18.75;;;;;14.84;61.73;100945.22;5059793;28;45380;-62
2022/10/10 03:23:05;;;;;;;;;20.25;18.00;;;;;14.84;61.49;100936.31;5059337;28;45386;-61
2022/10/10 03:25:33;;;;;;;;;21.00;17.25;;;;;14.84;61.81;100941.69;5056821;28;45463;-62
2022/10/10 03:27:59;;;;;;;;;20.00;17.00;;;;;14.80;61.72;100930.19;5058982;28;47342;-61
2022/10/10 03:30:24;;;;;;;;;13.50;13.50;;;;;14.82;61.92;100939.94;5059583;28;45300;-61
2022/10/10 03:32:49;;;;;;;;;17.75;14.50;;;;;14.76;61.72;100932.16;5059908;28;45299;-61
2022/10/10 03:35:14;;;;;;;;;15.75;15.25;;;;;14.80;61.68;100941.81;5059290;28;45770;-61
2022/10/10 03:37:40;;;;;;;;;13.75;12.75;;;;;14.78;61.65;100937.44;5059157;28;45371;-61
2022/10/10 03:40:05;;;;;;;;;14.75;12.75;;;;;14.78;61.95;100942.81;5058277;28;45292;-61
2022/10/10 03:42:31;;;;;;;;;13.75;13.00;;;;;14.69;62.13;100927.16;5059772;28;45331;-61
2022/10/10 03:44:56;;;;;;;;;12.00;12.00;;;;;14.74;61.82;100949.28;5059167;28;45312;-61
2022/10/10 03:47:21;;;;;;;;;11.25;10.00;;;;;14.64;62.19;100930.91;5059322;28;45502;-61
2022/10/10 03:49:47;;;;;;;;;12.00;12.00;;;;;14.67;61.81;100945.13;5059325;28;45320;-61
2022/10/10 03:52:12;;;;;;;;;15.75;14.00;;;;;14.64;62.04;100947.03;5059615;28;45299;-61
2022/10/10 03:54:37;;;;;;;;;11.75;11.75;;;;;14.63;62.14;100941.72;5040207;28;45608;-61
2022/10/10 03:57:03;;;;;;;;;9.25;9.00;;;;;14.62;62.28;100945.38;5058773;28;46088;-61
2022/10/10 03:59:28;;;;;;;;;12.75;12.50;;;;;14.58;62.02;100941.03;5041183;28;45380;-61
2022/10/10 04:01:53;;;;;;;;;12.25;11.75;;;;;14.60;62.13;100940.06;5059456;28;45371;-61
2022/10/10 04:04:18;;;;;;;;;10.75;9.75;;;;;14.62;62.15;100945.38;5048217;28;45392;-61
2022/10/10 04:06:44;;;;;;;;;16.25;12.75;;;;;14.55;62.22;100930.41;5057817;28;45357;-61
2022/10/10 04:09:09;;;;;;;;;13.75;12.00;;;;;14.66;62.34;100946.09;5057545;28;45344;-61
2022/10/10 04:11:37;;;;;;;;;13.00;10.75;;;;;14.62;62.32;100934.63;5059460;28;45761;-61
2022/10/10 04:14:02;;;;;;;;;10.25;9.00;;;;;14.67;62.19;100937.06;5058826;28;45415;-61
2022/10/10 04:16:28;;;;;;;;;11.75;11.75;;;;;14.70;62.21;100943.19;5059060;28;45234;-61
2022/10/10 04:18:53;;;;;;;;;11.25;10.25;;;;;14.67;62.28;100929.00;5059008;28;45319;-61
2022/10/10 04:21:18;;;;;;;;;12.00;11.25;;;;;14.69;62.29;100929.84;5058097;28;45412;-61
2022/10/10 04:23:43;;;;;;;;;11.50;10.25;;;;;14.70;62.16;100932.44;5050960;28;45589;-61
2022/10/10 04:26:09;;;;;;;;;14.50;12.00;;;;;14.72;62.12;100927.88;5058865;28;46196;-61
2022/10/10 04:28:35;;;;;;;;;14.50;11.25;;;;;14.68;62.69;100930.75;5039806;28;45324;-61
2022/10/10 04:31:00;;;;;;;;;11.75;11.75;;;;;14.70;62.48;100945.00;5058403;28;45488;-61
2022/10/10 04:33:25;;;;;;;;;11.25;10.25;;;;;14.60;62.25;100923.03;5040600;28;45692;-61
2022/10/10 04:35:51;;;;;;;;;14.25;12.00;;;;;14.61;62.37;100933.72;5061779;28;45310;-61
2022/10/10 04:38:18;;;;;;;;;10.00;10.00;;;;;14.61;62.43;100940.94;5060990;28;45561;-61
2022/10/10 04:40:43;;;;;;;;;12.50;12.50;;;;;14.57;62.60;100926.72;5062495;28;45371;-61
2022/10/10 04:43:09;;;;;;;;;12.75;12.75;;;;;14.55;62.73;100935.78;5062432;28;45471;-61
2022/10/10 04:45:34;;;;;;;;;11.00;11.00;;;;;14.53;62.33;100932.31;5062159;28;46057;-62
2022/10/10 04:48:00;;;;;;;;;13.25;11.00;;;;;14.52;62.80;100936.81;5062125;28;45443;-61
2022/10/10 04:50:26;;;;;;;;;10.75;10.50;;;;;14.40;62.52;100916.75;5062498;28;45541;-61
2022/10/10 04:52:51;;;;;;;;;10.25;10.25;;;;;14.50;62.92;100936.03;5060308;28;45427;-61
2022/10/10 04:55:16;;;;;;;;;11.00;11.00;;;;;14.48;62.85;100937.03;5061125;28;45927;-61
2022/10/10 04:57:42;;;;;;;;;10.00;10.00;;;;;14.41;62.89;100933.75;5062012;28;45562;-61
2022/10/10 05:00:08;;;;;;;;;12.75;11.50;;;;;14.43;62.96;100927.38;5062412;28;45453;-61
2022/10/10 05:02:33;;;;;;;;;11.00;10.50;;;;;14.35;63.33;100918.78;5061933;28;45479;-61
2022/10/10 05:04:59;;;;;;;;;11.25;10.25;;;;;14.42;63.23;100924.75;5061909;28;45576;-61
2022/10/10 05:07:24;;;;;;;;;10.50;10.50;;;;;14.39;63.46;100936.50;5061071;28;45464;-61
2022/10/10 05:09:50;;;;;;;;;11.25;9.75;;;;;14.33;63.43;100920.66;5061138;28;45478;-61
2022/10/10 05:12:15;;;;;;;;;11.00;9.50;;;;;14.37;63.70;100919.59;5043709;28;45735;-61
2022/10/10 05:14:41;;;;;;;;;10.25;9.25;;;;;14.37;63.53;100927.66;5061670;28;45582;-61
2022/10/10 05:17:06;;;;;;;;;7.75;7.75;;;;;14.37;63.76;100922.28;5061795;28;45354;-61
2022/10/10 05:19:31;;;;;;;;;12.25;10.50;;;;;14.34;63.54;100932.28;5061993;28;45566;-61
2022/10/10 05:21:57;;;;;;;;;9.50;9.50;;;;;14.33;63.97;100933.22;5061848;28;45269;-61
2022/10/10 05:24:22;;;;;;;;;10.50;10.00;;;;;14.37;63.60;100938.38;5051651;28;47138;-61
2022/10/10 05:26:48;;;;;;;;;9.25;9.25;;;;;14.36;63.76;100936.63;5061476;28;45386;-61
2022/10/10 05:29:13;;;;;;;;;11.50;9.50;;;;;14.35;63.87;100934.00;5061859;28;45328;-61
2022/10/10 05:31:38;;;;;;;;;10.25;10.25;;;;;14.32;63.88;100928.81;5060787;28;46579;-61
2022/10/10 05:34:04;;;;;;;;;8.25;8.25;;;;;14.32;63.96;100928.81;5061681;28;46015;-61
2022/10/10 05:36:29;;;;;;;;;11.75;10.00;;;;;14.33;63.90;100935.91;5059906;28;46507;-61
2022/10/10 05:38:55;;;;;;;;;11.00;10.00;;;;;14.36;64.12;100939.31;5060550;28;45399;-61
2022/10/10 05:41:20;;;;;;;;;11.00;10.50;;;;;14.36;64.01;100935.75;5061444;28;45412;-61
2022/10/10 05:43:45;;;;;;;;;8.50;8.50;;;;;14.35;63.81;100936.69;5061476;28;46107;-61
2022/10/10 05:46:11;;;;;;;;;13.50;11.00;;;;;14.34;64.21;100933.16;5060631;28;45383;-61
2022/10/10 05:48:36;;;;;;;;;9.00;9.00;;;;;14.33;64.38;100931.38;5061721;28;45376;-61
2022/10/10 05:51:01;;;;;;;;;12.25;10.75;;;;;14.33;64.04;100928.69;5061142;28;45593;-61
2022/10/10 05:53:29;;;;;;;;;15.25;11.75;;;;;14.37;64.09;100924.97;5057233;28;45378;-61
2022/10/10 05:55:54;;;;;;;;;10.00;9.75;;;;;14.31;63.92;100925.22;5055489;28;45347;-61
2022/10/10 05:58:19;;;;;;;;;10.25;9.00;;;;;14.30;64.17;100917.22;5061358;28;45260;-61
2022/10/10 06:00:46;;;;;;;;;6.50;5.50;;;;;14.29;64.18;100921.75;5060312;28;45531;-61
2022/10/10 06:03:15;;;;;;;;;11.00;10.00;;;;;14.32;64.27;100929.66;5042513;28;47087;-61
2022/10/10 06:05:40;;;;;;;;;11.00;11.00;;;;;14.32;64.48;100928.81;5060655;28;45475;-61
2022/10/10 06:08:07;;;;;;;;;11.00;10.75;;;;;14.28;64.23;100925.34;5059642;28;45384;-61
2022/10/10 06:10:50;;;;;;;;;11.25;10.75;;;;;14.27;64.17;100921.81;5060553;28;45543;-61
2022/10/10 06:13:17;;;;;;;;;8.50;8.50;;;;;14.33;64.40;100936.75;5059494;28;46083;-62
2022/10/10 06:15:43;;;;;;;;;9.25;9.25;;;;;14.31;64.40;100937.78;5042594;28;45423;-61
2022/10/10 06:18:09;;;;;;;;;10.25;10.25;;;;;14.31;64.66;100932.41;5061261;28;45418;-61
2022/10/10 06:20:39;;;;;;;;;9.00;8.75;;;;;14.30;64.57;100944.97;5060801;28;45406;-61
2022/10/10 06:23:06;;;;;;;;;11.00;10.00;;;;;14.24;64.49;100930.00;5061551;28;46070;-62
2022/10/10 06:25:33;;;;;;;;;9.50;9.00;;;;;14.27;64.56;100945.13;5058238;28;45595;-63
2022/10/10 06:27:58;;;;;;;;;12.00;12.00;;;;;14.29;64.62;100951.28;5060440;28;45316;-63
2022/10/10 06:30:24;;;;;;;;;8.50;8.50;;;;;14.25;64.72;100955.91;5059138;28;45580;-63
2022/10/10 06:32:49;;;;;;;;;12.75;11.75;;;;;14.27;64.79;100958.53;5058806;28;46194;-63
2022/10/10 06:35:15;;;;;;;;;11.25;10.75;;;;;14.26;64.80;100960.31;5059566;28;45403;-62
2022/10/10 06:37:40;;;;;;;;;12.50;12.50;;;;;14.25;65.02;100958.59;5059634;28;45424;-63
2022/10/10 06:40:06;;;;;;;;;10.25;10.25;;;;;14.22;64.75;100955.19;5059780;28;45508;-63
2022/10/10 06:42:32;;;;;;;;;12.75;10.00;;;;;14.26;64.99;100959.47;5051976;28;47191;-63
2022/10/10 06:44:57;;;;;;;;;9.75;9.75;;;;;14.18;64.75;100949.09;5059838;28;45478;-63
2022/10/10 06:47:22;;;;;;;;;11.00;11.00;;;;;14.27;64.90;100953.16;5041114;28;45767;-63
2022/10/10 06:49:48;;;;;;;;;13.50;12.25;;;;;14.29;65.04;100962.03;5059215;28;45455;-63
2022/10/10 06:52:13;;;;;;;;;13.25;12.00;;;;;14.27;65.17;100961.22;5059814;28;45410;-63
2022/10/10 06:54:39;;;;;;;;;13.75;9.75;;;;;14.29;65.06;100958.47;5059226;28;45587;-63
2022/10/10 06:57:04;;;;;;;;;13.50;11.00;;;;;14.25;65.26;100958.59;5059331;28;45647;-63
2022/10/10 06:59:30;;;;;;;;;12.00;10.25;;;;;14.22;65.11;100960.56;5060089;28;45545;-63
2022/10/10 07:01:55;;;;;;;;;15.50;15.50;;;;;14.26;65.33;100979.13;5059638;28;45367;-63
2022/10/10 07:04:20;;;;;;;;;10.00;9.50;;;;;14.31;65.34;100984.31;5059803;28;45392;-62
2022/10/10 07:06:46;;;;;;;;;10.50;7.50;;;;;14.31;65.39;100994.19;5056369;28;45653;-62
2022/10/10 07:09:11;;;;;;;;;11.75;11.75;;;;;14.38;65.32;101001.91;5050903;28;45753;-64
2022/10/10 07:11:37;;;;;;;;;14.00;12.00;;;;;14.27;65.64;100978.19;5058275;28;45930;-64
2022/10/10 07:14:02;;;;;;;;;16.00;13.50;;;;;14.44;65.62;101000.75;5041295;28;45507;-64
2022/10/10 07:16:28;;;;;;;;;16.50;14.25;;;;;14.38;65.20;100991.16;5055257;28;45404;-63
2022/10/10 07:18:53;;;;;;;;;12.25;12.25;;;;;14.30;65.55;100970.94;5052263;28;45503;-63
2022/10/10 07:21:20;;;;;;;;;12.75;12.75;;;;;14.50;65.38;101003.19;5041286;28;47178;-63
2022/10/10 07:23:45;;;;;;;;;13.50;11.75;;;;;14.48;65.81;101001.47;5054713;28;46301;-63
2022/10/10 07:26:13;;;;;;;;;14.50;12.50;;;;;14.43;65.45;100989.16;5053253;28;45637;-63
2022/10/10 07:28:38;;;;;;;;;13.25;12.00;;;;;14.58;65.89;101013.56;5051223;28;46345;-63
2022/10/10 07:31:09;;;;;;;;;13.75;13.75;;;;;14.61;66.03;101010.78;5063495;28;46323;-64
2022/10/10 07:33:38;;;;;;;;;16.75;15.25;;;;;14.58;65.95;100992.97;5059643;28;45359;-64
2022/10/10 07:36:05;;;;;;;;;15.00;14.50;;;;;14.65;65.77;101001.66;5053228;28;45498;-63
2022/10/10 07:38:30;;;;;;;;;17.25;13.50;;;;;14.63;66.11;100995.44;5055677;28;45520;-64
2022/10/10 07:40:55;;;;;;;;;14.75;12.75;;;;;14.68;65.98;100996.09;5057104;28;45469;-63
2022/10/10 07:43:21;;;;;;;;;20.00;17.75;;;;;14.65;66.04;100998.97;5057743;28;45534;-63
2022/10/10 07:45:48;;;;;;;;;15.00;12.50;;;;;14.74;65.99;101000.34;5058394;28;45597;-63
2022/10/10 07:48:13;;;;;;;;;16.50;14.75;;;;;14.72;65.97;101003.09;5059643;28;45350;-60
2022/10/10 07:50:43;;;;;;;;;11.75;11.00;;;;;14.82;66.23;101022.38;5058437;28;45463;-61
2022/10/10 07:53:09;;;;;;;;;18.00;14.75;;;;;14.87;66.49;101025.72;5057972;28;45576;-61
2022/10/10 07:55:39;;;;;;;;;13.50;13.00;;;;;14.82;66.21;101022.38;5057456;28;45582;-61
2022/10/10 07:58:04;;;;;;;;;14.25;14.25;;;;;14.89;66.34;101022.97;5046996;28;45537;-61
2022/10/10 08:00:30;;;;;;;;;12.50;12.00;;;;;14.94;66.50;101032.56;5051582;28;45382;-60
2022/10/10 08:02:55;;;;;;;;;14.75;11.25;;;;;14.98;66.72;101030.59;5064533;28;45315;-60
2022/10/10 08:05:20;;;;;;;;;15.75;15.00;;;;;15.03;66.49;101023.19;5058226;28;45405;-61
2022/10/10 08:07:46;;;;;;;;;14.25;14.00;;;;;15.03;66.70;101017.81;5054786;28;45325;-60
2022/10/10 08:10:12;;;;;;;;;15.25;12.00;;;;;15.09;67.09;101028.28;5055567;28;46059;-61
2022/10/10 08:12:37;;;;;;;;;8.00;8.00;;;;;15.06;66.95;101009.59;5056206;28;45343;-61
2022/10/10 08:15:05;;;;;;;;;15.25;12.75;;;;;15.14;67.06;101018.19;5057784;28;45332;-61
2022/10/10 08:17:30;;;;;;;;;12.75;11.75;;;;;15.13;67.28;101018.25;5057839;28;45525;-61
2022/10/10 08:19:56;;;;;;;;;14.00;11.50;;;;;15.24;67.48;101028.50;5038571;28;47202;-60
2022/10/10 08:22:21;;;;;;;;;12.00;11.00;;;;;15.25;67.30;101033.81;5053469;28;45414;-61
2022/10/10 08:24:46;;;;;;;;;13.25;12.75;;;;;15.28;67.58;101032.78;5055966;28;45488;-60
2022/10/10 08:27:13;;;;;;;;;13.00;11.00;;;;;15.34;67.51;101036.06;5041227;28;46265;-60
2022/10/10 08:29:38;;;;;;;;;14.25;11.50;;;;;15.34;67.39;101041.44;5071055;27;47062;-60
2022/10/10 08:32:04;;;;;;;;;15.25;12.75;;;;;15.41;67.43;101058.16;5058688;28;45355;-61
2022/10/10 08:34:29;;;;;;;;;16.50;13.75;;;;;15.44;67.52;101060.72;5056738;28;45568;-62
2022/10/10 08:36:54;;;;;;;;;12.25;12.25;;;;;15.49;67.59;101065.88;5057814;28;45531;-62
2022/10/10 08:39:20;;;;;;;;;11.75;11.25;;;;;15.50;67.85;101059.53;5065007;28;46441;-59
2022/10/10 08:41:55;;;;;;;;;15.00;13.00;;;;;15.53;67.77;101056.69;5057568;28;45369;-59
2022/10/10 08:44:42;;;;;;;;;14.00;10.50;;;;;15.56;67.99;101062.81;5055929;28;45588;-59
2022/10/10 08:47:27;;;;;;;;;12.00;11.75;;;;;15.60;67.68;101066.22;5059390;28;45468;-59
2022/10/10 08:50:10;;;;;;;;;14.25;13.00;;;;;15.62;67.66;101069.72;5056966;28;45314;-59
2022/10/10 08:53:20;;;;;;;;;13.50;11.00;;;;;15.66;67.73;101063.22;5055711;28;45660;-60
2022/10/10 08:55:46;;;;;;;;;13.75;13.00;;;;;15.62;67.87;101069.72;5036272;28;47704;-60
2022/10/10 08:58:22;;;;;;;;;13.00;13.00;;;;;15.73;67.58;101090.72;5056774;28;45336;-59
2022/10/10 09:01:00;;;;;;;;;17.25;15.25;;;;;15.77;67.97;101094.16;5056216;28;46091;-60
2022/10/10 09:03:44;;;;;;;;;13.00;12.75;;;;;15.80;67.82;101094.88;5056255;28;45779;-60
2022/10/10 09:06:18;;;;;;;;;16.00;14.00;;;;;15.84;67.82;101092.94;5057863;28;45242;-60
2022/10/10 09:08:59;;;;;;;;;18.25;14.25;;;;;15.86;67.99;101096.44;5055401;28;45336;-60
2022/10/10 09:11:46;;;;;;;;;13.00;10.25;;;;;15.92;68.15;101088.91;5057259;28;45436;-59
2022/10/10 09:14:29;;;;;;;;;17.00;14.50;;;;;15.98;68.23;101076.09;5059607;28;45392;-59
2022/10/10 09:17:01;;;;;;;;;18.00;14.50;;;;;15.99;68.33;101076.03;5057182;28;47077;-62
2022/10/10 09:19:45;;;;;;;;;14.50;13.50;;;;;16.08;67.98;101088.16;5056835;28;45724;-61
2022/10/10 09:22:19;;;;;;;;;15.25;13.00;;;;;16.13;68.28;101096.88;5057308;28;45434;-60
2022/10/10 09:24:57;;;;;;;;;12.25;10.75;;;;;16.18;68.14;101092.13;5060100;28;45777;-59
2022/10/10 09:27:28;;;;;;;;;12.00;11.25;;;;;16.19;68.14;101088.50;5056206;28;45511;-59
2022/10/10 09:30:16;;;;;;;;;10.50;10.00;;;;;16.20;68.20;101079.44;5059381;28;45356;-59
2022/10/10 09:32:48;;;;;;;;;13.50;13.00;;;;;16.25;67.99;101085.47;5060879;28;46127;-59
2022/10/10 09:35:21;;;;;;;;;17.50;16.50;;;;;16.32;68.34;101102.19;5060444;28;45694;-59
2022/10/10 09:37:59;;;;;;;;;12.50;10.50;;;;;16.35;68.18;101120.03;5060265;28;45597;-60
2022/10/10 09:40:35;;;;;;;;;11.00;10.00;;;;;16.34;68.11;101113.78;5056026;28;45380;-59
2022/10/10 09:43:12;;;;;;;;;14.00;13.50;;;;;16.37;68.13;101127.09;5060610;28;46152;-59
2022/10/10 09:45:47;;;;;;;;;14.50;10.50;;;;;16.39;68.34;101118.91;5083321;27;45655;-59
2022/10/10 09:48:12;;;;;;;;;11.50;11.00;;;;;16.42;68.68;101134.94;5059499;28;45397;-59
2022/10/10 09:50:38;;;;;;;;;11.25;10.00;;;;;16.43;68.41;101134.84;5061260;28;45823;-59
2022/10/10 09:53:03;;;;;;;;;12.00;10.25;;;;;16.46;68.64;101132.00;5055632;28;45591;-59
2022/10/10 09:55:34;;;;;;;;;11.00;11.00;;;;;16.50;68.35;101140.81;5059021;28;45475;-59
2022/10/10 09:58:28;;;;;;;;;11.25;9.25;;;;;16.44;68.49;101127.66;5059258;28;45469;-59
2022/10/10 10:00:54;;;;;;;;;8.50;8.25;;;;;16.55;68.31;101141.44;5051593;28;45334;-59
2022/10/10 10:03:21;;;;;;;;;13.00;11.50;;;;;16.58;68.66;101148.50;5062126;28;46106;-59
2022/10/10 10:05:57;;;;;;;;;12.50;10.25;;;;;16.56;68.34;101143.19;5062475;28;45360;-59
2022/10/10 10:08:35;;;;;;;;;11.25;9.75;;;;;16.63;68.56;101143.75;5059530;28;45530;-59
2022/10/10 10:11:03;;;;;;;;;9.75;9.75;;;;;16.67;68.67;101148.03;5059416;28;45447;-59
2022/10/10 10:13:31;;;;;;;;;11.50;10.25;;;;;16.71;68.73;101143.38;5059209;28;47169;-59
2022/10/10 10:16:03;;;;;;;;;10.25;10.00;;;;;16.73;68.78;101146.84;5059151;28;45557;-59
2022/10/10 10:18:29;;;;;;;;;11.00;10.50;;;;;16.77;68.53;101137.63;5059587;28;45443;-59
2022/10/10 10:21:01;;;;;;;;;13.00;10.00;;;;;16.81;68.19;101139.25;5055341;28;45861;-60
2022/10/10 10:23:39;;;;;;;;;12.75;12.50;;;;;16.85;68.28;101146.25;5050608;28;45442;-59
2022/10/10 10:26:14;;;;;;;;;10.75;10.25;;;;;16.88;68.33;101151.47;5058328;28;45505;-60
2022/10/10 10:28:40;;;;;;;;;13.75;12.25;;;;;16.92;68.05;101160.25;5056559;28;45687;-60
2022/10/10 10:31:18;;;;;;;;;14.50;12.25;;;;;16.93;68.45;101154.78;5058140;28;45555;-60
2022/10/10 10:34:12;;;;;;;;;10.00;10.00;;;;;16.94;68.34;101159.25;5058533;28;46728;-60
2022/10/10 10:36:56;;;;;;;;;13.25;12.25;;;;;16.97;68.46;101164.50;5055833;28;45335;-60
2022/10/10 10:39:58;;;;;;;;;13.75;11.50;;;;;17.02;68.08;101173.22;5057386;28;45343;-60
2022/10/10 10:43:08;;;;;;;;;18.50;14.75;;;;;17.07;68.39;101177.47;5059275;28;47580;-60
2022/10/10 10:45:39;;;;;;;;;13.50;13.50;;;;;17.10;68.27;101180.88;4933272;28;45572;-60
2022/10/10 10:48:19;;;;;;;;;10.75;10.75;;;;;17.14;67.76;101181.56;4947436;28;45517;-60
2022/10/10 10:51:10;;;;;;;;;12.25;11.75;;;;;17.17;68.08;101181.41;5007733;28;45543;-60
2022/10/10 10:53:44;;;;;;;;;11.25;11.00;;;;;17.19;67.92;101191.19;5044761;28;45533;-60
2022/10/10 10:56:39;;;;;;;;;12.00;12.00;;;;;17.21;67.59;101189.28;5058917;28;46237;-60
2022/10/10 10:59:35;;;;;;;;;14.00;12.25;;;;;17.25;67.96;101198.06;5055089;28;45328;-60
2022/10/10 11:02:06;;;;;;;;;14.00;10.50;;;;;17.29;67.72;101204.19;5060465;28;45350;-60
2022/10/10 11:04:53;;;;;;;;;12.75;12.75;;;;;17.32;67.53;101199.47;5053427;28;45412;-60
2022/10/10 11:07:24;;;;;;;;;10.50;9.75;;;;;17.36;67.54;101202.91;5060278;28;45456;-60
2022/10/10 11:10:20;;;;;;;;;12.00;11.75;;;;;17.39;67.88;101209.00;5055091;28;46183;-61
2022/10/10 11:13:04;;;;;;;;;14.00;12.00;;;;;17.44;67.84;101205.19;5055502;28;45463;-60
2022/10/10 11:15:40;;;;;;;;;12.25;12.25;;;;;17.48;67.82;101209.47;5055897;28;45702;-60
2022/10/10 11:18:35;;;;;;;;;13.75;11.50;;;;;17.46;67.86;101203.25;5055289;28;46189;-60
2022/10/10 11:21:17;;;;;;;;;16.00;14.25;;;;;17.57;68.22;101217.06;5050217;28;46193;-60
2022/10/10 11:23:49;;;;;;;;;14.00;14.00;;;;;17.54;68.05;101206.44;5055147;28;45360;-60
2022/10/10 11:26:23;;;;;;;;;18.50;14.75;;;;;17.66;68.19;101219.28;5055177;28;45776;-61